createdAt,value
2018-11-23T20:59:38.657Z,66.91
2018-11-23T21:02:08.008Z,66.06
2018-11-23T21:11:58.040Z,61.49
2018-11-23T21:14:31.017Z,63.33
2018-11-23T21:17:03.505Z,54.98
2018-11-23T21:19:36.129Z,67.92
2018-11-23T21:22:09.310Z,73.77
2018-11-23T21:24:41.894Z,77.38
2018-11-23T21:27:15.508Z,79.50
2018-11-23T21:29:48.438Z,79.84
2018-11-23T21:32:24.179Z,81.27
2018-11-23T21:34:56.745Z,81.83
2018-11-23T21:37:29.439Z,82.38
2018-11-23T21:40:02.142Z,82.10
2018-11-23T21:42:35.083Z,82.89
2018-11-23T21:45:09.313Z,83.00
2018-11-23T21:47:41.909Z,83.02
2018-11-23T21:50:25.190Z,83.49
2018-11-23T21:52:52.327Z,83.80
2018-11-23T21:55:26.071Z,83.95
2018-11-23T21:57:59.229Z,83.93
2018-11-23T22:00:31.761Z,84.72
2018-11-23T22:03:04.486Z,84.61
2018-11-23T22:05:37.073Z,84.79
2018-11-23T22:08:18.044Z,85.06
2018-11-23T22:10:52.838Z,85.21
2018-11-23T22:13:49.230Z,86.09
2018-11-23T22:16:23.036Z,86.09
2018-11-23T22:18:55.766Z,86.17
2018-11-23T22:21:28.871Z,86.11
2018-11-23T22:24:04.142Z,86.43
2018-11-23T22:26:37.698Z,86.57
2018-11-23T22:32:25.026Z,86.62
2018-11-23T22:35:48.856Z,87.08
2018-11-23T22:46:29.941Z,86.47
2018-11-23T22:49:43.299Z,86.56
2018-11-23T22:52:58.358Z,86.72
2018-11-23T22:55:16.715Z,86.94
2018-11-23T22:58:06.986Z,87.12
2018-11-23T23:01:09.173Z,86.92
2018-11-23T23:06:39.315Z,87.25
2018-11-23T23:09:12.852Z,87.41
2018-11-23T23:11:47.434Z,87.45
2018-11-23T23:14:24.341Z,87.41
2018-11-23T23:16:57.678Z,87.35
2018-11-23T23:19:30.290Z,87.55
2018-11-23T23:22:03.042Z,87.76
2018-11-23T23:24:35.647Z,87.81
2018-11-23T23:27:08.314Z,87.75
2018-11-23T23:29:40.911Z,87.81
2018-11-23T23:32:15.149Z,87.92
2018-11-23T23:34:47.028Z,87.80
2018-11-23T23:37:20.051Z,87.81
2018-11-23T23:39:56.027Z,87.83
2018-11-23T23:42:30.782Z,87.80
2018-11-23T23:45:11.624Z,87.75
2018-11-23T23:47:45.080Z,87.66
2018-11-23T23:50:26.592Z,87.39
2018-11-23T23:52:59.302Z,87.36
2018-11-23T23:55:33.001Z,87.42
2018-11-23T23:58:06.440Z,87.46
